sensor_id;sensor_type;location;lat;lon;timestamp;P1;durP1;ratioP1;P2;durP2;ratioP2
50126;SDS011;36024;47.974;16.398;2024-02-26T00:00:29;3.90;;;2.47;;
50126;SDS011;36024;47.974;16.398;2024-02-26T00:03:03;2.70;;;2.30;;
50126;SDS011;36024;47.974;16.398;2024-02-26T00:05:31;4.90;;;2.30;;
50126;SDS011;36024;47.974;16.398;2024-02-26T00:07:59;3.07;;;2.27;;
50126;SDS011;36024;47.974;16.398;2024-02-26T00:10:32;3.20;;;2.17;;
50126;SDS011;36024;47.974;16.398;2024-02-26T00:13:00;3.13;;;2.20;;
50126;SDS011;36024;47.974;16.398;2024-02-26T00:15:32;3.33;;;2.33;;
50126;SDS011;36024;47.974;16.398;2024-02-26T00:18:02;3.87;;;2.20;;
50126;SDS011;36024;47.974;16.398;2024-02-26T00:20:30;4.70;;;2.20;;
50126;SDS011;36024;47.974;16.398;2024-02-26T00:22:58;2.83;;;2.13;;
50126;SDS011;36024;47.974;16.398;2024-02-26T00:25:26;3.30;;;2.03;;
50126;SDS011;36024;47.974;16.398;2024-02-26T00:27:57;5.60;;;2.10;;
50126;SDS011;36024;47.974;16.398;2024-02-26T00:30:25;4.13;;;1.90;;
50126;SDS011;36024;47.974;16.398;2024-02-26T00:32:55;3.30;;;2.30;;
50126;SDS011;36024;47.974;16.398;2024-02-26T00:35:27;4.17;;;2.40;;
50126;SDS011;36024;47.974;16.398;2024-02-26T00:37:55;3.30;;;2.30;;
50126;SDS011;36024;47.974;16.398;2024-02-26T00:40:22;3.13;;;1.90;;
50126;SDS011;36024;47.974;16.398;2024-02-26T00:42:51;3.37;;;2.00;;
50126;SDS011;36024;47.974;16.398;2024-02-26T00:45:19;3.63;;;2.00;;
50126;SDS011;36024;47.974;16.398;2024-02-26T00:47:47;3.07;;;1.63;;
50126;SDS011;36024;47.974;16.398;2024-02-26T00:50:16;3.60;;;2.10;;
50126;SDS011;36024;47.974;16.398;2024-02-26T00:52:44;3.03;;;2.00;;
50126;SDS011;36024;47.974;16.398;2024-02-26T00:55:15;2.77;;;1.90;;
50126;SDS011;36024;47.974;16.398;2024-02-26T00:57:47;4.80;;;2.10;;
50126;SDS011;36024;47.974;16.398;2024-02-26T01:00:17;3.17;;;2.13;;
50126;SDS011;36024;47.974;16.398;2024-02-26T01:02:48;2.17;;;1.77;;
50126;SDS011;36024;47.974;16.398;2024-02-26T01:05:18;3.30;;;2.20;;
50126;SDS011;36024;47.974;16.398;2024-02-26T01:07:47;4.83;;;2.20;;
50126;SDS011;36024;47.974;16.398;2024-02-26T01:10:14;4.00;;;2.13;;
50126;SDS011;36024;47.974;16.398;2024-02-26T01:12:45;2.97;;;1.70;;
50126;SDS011;36024;47.974;16.398;2024-02-26T01:15:14;2.43;;;1.60;;
50126;SDS011;36024;47.974;16.398;2024-02-26T01:17:42;1.80;;;1.60;;
50126;SDS011;36024;47.974;16.398;2024-02-26T01:20:13;3.20;;;1.97;;
50126;SDS011;36024;47.974;16.398;2024-02-26T01:22:47;2.43;;;1.83;;
50126;SDS011;36024;47.974;16.398;2024-02-26T01:25:15;5.30;;;2.00;;
50126;SDS011;36024;47.974;16.398;2024-02-26T01:27:47;3.93;;;1.97;;
50126;SDS011;36024;47.974;16.398;2024-02-26T01:30:20;3.63;;;1.67;;
50126;SDS011;36024;47.974;16.398;2024-02-26T01:32:49;2.57;;;1.70;;
50126;SDS011;36024;47.974;16.398;2024-02-26T01:35:18;3.27;;;2.20;;
50126;SDS011;36024;47.974;16.398;2024-02-26T01:37:56;2.93;;;1.80;;
50126;SDS011;36024;47.974;16.398;2024-02-26T01:40:29;3.30;;;1.90;;
50126;SDS011;36024;47.974;16.398;2024-02-26T01:42:59;2.33;;;1.67;;
50126;SDS011;36024;47.974;16.398;2024-02-26T01:45:28;2.33;;;1.70;;
50126;SDS011;36024;47.974;16.398;2024-02-26T01:47:59;2.87;;;1.90;;
50126;SDS011;36024;47.974;16.398;2024-02-26T01:50:27;3.17;;;1.90;;
50126;SDS011;36024;47.974;16.398;2024-02-26T01:52:56;2.20;;;1.70;;
50126;SDS011;36024;47.974;16.398;2024-02-26T01:55:24;3.73;;;1.80;;
50126;SDS011;36024;47.974;16.398;2024-02-26T01:57:56;2.97;;;1.97;;
50126;SDS011;36024;47.974;16.398;2024-02-26T02:00:24;3.13;;;1.80;;
50126;SDS011;36024;47.974;16.398;2024-02-26T02:02:52;3.10;;;2.00;;
50126;SDS011;36024;47.974;16.398;2024-02-26T02:05:24;4.77;;;1.97;;
50126;SDS011;36024;47.974;16.398;2024-02-26T02:07:54;4.23;;;2.40;;
50126;SDS011;36024;47.974;16.398;2024-02-26T02:10:22;3.03;;;1.70;;
50126;SDS011;36024;47.974;16.398;2024-02-26T02:12:52;2.53;;;1.67;;
50126;SDS011;36024;47.974;16.398;2024-02-26T02:15:21;2.03;;;1.63;;
50126;SDS011;36024;47.974;16.398;2024-02-26T02:17:49;3.03;;;1.83;;
50126;SDS011;36024;47.974;16.398;2024-02-26T02:20:16;2.80;;;2.00;;
50126;SDS011;36024;47.974;16.398;2024-02-26T02:22:46;3.10;;;1.80;;
50126;SDS011;36024;47.974;16.398;2024-02-26T02:25:16;2.97;;;1.83;;
50126;SDS011;36024;47.974;16.398;2024-02-26T02:27:45;3.90;;;1.90;;
50126;SDS011;36024;47.974;16.398;2024-02-26T02:30:12;2.70;;;2.20;;
50126;SDS011;36024;47.974;16.398;2024-02-26T02:32:46;4.40;;;2.33;;
50126;SDS011;36024;47.974;16.398;2024-02-26T02:35:22;3.80;;;2.10;;
50126;SDS011;36024;47.974;16.398;2024-02-26T02:37:52;4.00;;;2.20;;
50126;SDS011;36024;47.974;16.398;2024-02-26T02:40:20;4.37;;;2.17;;
50126;SDS011;36024;47.974;16.398;2024-02-26T02:42:47;3.23;;;2.27;;
50126;SDS011;36024;47.974;16.398;2024-02-26T02:45:20;4.63;;;2.17;;
50126;SDS011;36024;47.974;16.398;2024-02-26T02:47:49;4.17;;;2.27;;
50126;SDS011;36024;47.974;16.398;2024-02-26T02:50:23;3.57;;;1.90;;
50126;SDS011;36024;47.974;16.398;2024-02-26T02:52:50;3.53;;;2.10;;
50126;SDS011;36024;47.974;16.398;2024-02-26T02:55:18;3.57;;;2.40;;
50126;SDS011;36024;47.974;16.398;2024-02-26T02:57:45;3.07;;;1.90;;
50126;SDS011;36024;47.974;16.398;2024-02-26T03:00:17;4.57;;;1.87;;
50126;SDS011;36024;47.974;16.398;2024-02-26T03:02:47;3.83;;;2.37;;
50126;SDS011;36024;47.974;16.398;2024-02-26T03:05:15;4.10;;;2.50;;
50126;SDS011;36024;47.974;16.398;2024-02-26T03:07:42;3.50;;;2.33;;
50126;SDS011;36024;47.974;16.398;2024-02-26T03:10:09;5.17;;;2.47;;
50126;SDS011;36024;47.974;16.398;2024-02-26T03:12:37;4.37;;;2.70;;
50126;SDS011;36024;47.974;16.398;2024-02-26T03:15:06;3.47;;;2.40;;
50126;SDS011;36024;47.974;16.398;2024-02-26T03:17:33;5.87;;;2.50;;
50126;SDS011;36024;47.974;16.398;2024-02-26T03:20:00;4.50;;;2.63;;
50126;SDS011;36024;47.974;16.398;2024-02-26T03:22:31;5.70;;;2.73;;
50126;SDS011;36024;47.974;16.398;2024-02-26T03:24:59;5.33;;;2.70;;
50126;SDS011;36024;47.974;16.398;2024-02-26T03:27:26;2.93;;;2.20;;
50126;SDS011;36024;47.974;16.398;2024-02-26T03:29:58;3.60;;;2.40;;
50126;SDS011;36024;47.974;16.398;2024-02-26T03:32:26;6.17;;;2.57;;
50126;SDS011;36024;47.974;16.398;2024-02-26T03:34:54;2.53;;;2.20;;
50126;SDS011;36024;47.974;16.398;2024-02-26T03:37:23;3.27;;;2.40;;
50126;SDS011;36024;47.974;16.398;2024-02-26T03:39:50;4.33;;;2.50;;
50126;SDS011;36024;47.974;16.398;2024-02-26T03:42:18;3.73;;;2.20;;
50126;SDS011;36024;47.974;16.398;2024-02-26T03:44:49;3.50;;;2.27;;
50126;SDS011;36024;47.974;16.398;2024-02-26T03:47:18;3.80;;;2.10;;
50126;SDS011;36024;47.974;16.398;2024-02-26T03:49:45;2.63;;;2.13;;
50126;SDS011;36024;47.974;16.398;2024-02-26T03:52:13;3.40;;;2.30;;
50126;SDS011;36024;47.974;16.398;2024-02-26T03:54:42;3.47;;;2.10;;
50126;SDS011;36024;47.974;16.398;2024-02-26T03:57:10;2.47;;;2.20;;
50126;SDS011;36024;47.974;16.398;2024-02-26T03:59:38;4.00;;;2.23;;
50126;SDS011;36024;47.974;16.398;2024-02-26T04:02:15;2.93;;;2.10;;
50126;SDS011;36024;47.974;16.398;2024-02-26T04:04:43;4.03;;;2.37;;
50126;SDS011;36024;47.974;16.398;2024-02-26T04:07:19;2.70;;;2.07;;
50126;SDS011;36024;47.974;16.398;2024-02-26T04:09:46;3.87;;;2.37;;
50126;SDS011;36024;47.974;16.398;2024-02-26T04:12:14;4.57;;;2.00;;
50126;SDS011;36024;47.974;16.398;2024-02-26T04:14:42;3.00;;;2.20;;
50126;SDS011;36024;47.974;16.398;2024-02-26T04:17:10;2.53;;;2.17;;
50126;SDS011;36024;47.974;16.398;2024-02-26T04:19:38;3.40;;;2.20;;
50126;SDS011;36024;47.974;16.398;2024-02-26T04:22:05;3.40;;;2.00;;
50126;SDS011;36024;47.974;16.398;2024-02-26T04:24:33;3.63;;;2.37;;
50126;SDS011;36024;47.974;16.398;2024-02-26T04:27:01;3.13;;;2.07;;
50126;SDS011;36024;47.974;16.398;2024-02-26T04:29:30;3.77;;;1.90;;
50126;SDS011;36024;47.974;16.398;2024-02-26T04:31:58;3.23;;;2.30;;
50126;SDS011;36024;47.974;16.398;2024-02-26T04:34:26;2.60;;;2.20;;
50126;SDS011;36024;47.974;16.398;2024-02-26T04:36:54;3.73;;;2.40;;
50126;SDS011;36024;47.974;16.398;2024-02-26T04:39:21;3.83;;;2.40;;
50126;SDS011;36024;47.974;16.398;2024-02-26T04:41:51;3.37;;;2.27;;
50126;SDS011;36024;47.974;16.398;2024-02-26T04:44:19;3.47;;;2.43;;
50126;SDS011;36024;47.974;16.398;2024-02-26T04:46:46;2.93;;;2.13;;
50126;SDS011;36024;47.974;16.398;2024-02-26T04:49:16;3.03;;;1.87;;
50126;SDS011;36024;47.974;16.398;2024-02-26T04:51:44;2.33;;;2.07;;
50126;SDS011;36024;47.974;16.398;2024-02-26T04:54:14;3.03;;;2.20;;
50126;SDS011;36024;47.974;16.398;2024-02-26T04:56:45;2.43;;;2.10;;
50126;SDS011;36024;47.974;16.398;2024-02-26T04:59:15;3.33;;;2.00;;
50126;SDS011;36024;47.974;16.398;2024-02-26T05:01:43;2.50;;;1.80;;
50126;SDS011;36024;47.974;16.398;2024-02-26T05:04:10;3.93;;;2.23;;
50126;SDS011;36024;47.974;16.398;2024-02-26T05:06:39;3.63;;;2.17;;
50126;SDS011;36024;47.974;16.398;2024-02-26T05:09:07;3.30;;;2.00;;
50126;SDS011;36024;47.974;16.398;2024-02-26T05:11:35;3.50;;;2.13;;
50126;SDS011;36024;47.974;16.398;2024-02-26T05:14:05;4.73;;;2.23;;
50126;SDS011;36024;47.974;16.398;2024-02-26T05:16:35;3.73;;;1.90;;
50126;SDS011;36024;47.974;16.398;2024-02-26T05:19:06;4.17;;;2.20;;
50126;SDS011;36024;47.974;16.398;2024-02-26T05:21:36;3.17;;;2.20;;
50126;SDS011;36024;47.974;16.398;2024-02-26T05:24:03;2.17;;;1.80;;
50126;SDS011;36024;47.974;16.398;2024-02-26T05:26:31;4.90;;;2.33;;
50126;SDS011;36024;47.974;16.398;2024-02-26T05:28:58;3.20;;;2.10;;
50126;SDS011;36024;47.974;16.398;2024-02-26T05:31:26;2.33;;;2.10;;
50126;SDS011;36024;47.974;16.398;2024-02-26T05:33:54;2.90;;;2.00;;
50126;SDS011;36024;47.974;16.398;2024-02-26T05:36:23;4.20;;;2.20;;
50126;SDS011;36024;47.974;16.398;2024-02-26T05:38:51;2.87;;;1.93;;
50126;SDS011;36024;47.974;16.398;2024-02-26T05:41:20;2.63;;;2.00;;
50126;SDS011;36024;47.974;16.398;2024-02-26T05:43:50;4.40;;;1.97;;
50126;SDS011;36024;47.974;16.398;2024-02-26T05:46:18;3.30;;;2.00;;
50126;SDS011;36024;47.974;16.398;2024-02-26T05:48:54;2.73;;;1.60;;
50126;SDS011;36024;47.974;16.398;2024-02-26T05:51:22;2.83;;;1.83;;
50126;SDS011;36024;47.974;16.398;2024-02-26T05:53:50;4.20;;;2.27;;
50126;SDS011;36024;47.974;16.398;2024-02-26T05:56:22;6.03;;;2.77;;
50126;SDS011;36024;47.974;16.398;2024-02-26T05:58:49;4.97;;;4.00;;
50126;SDS011;36024;47.974;16.398;2024-02-26T06:01:18;6.23;;;5.17;;
50126;SDS011;36024;47.974;16.398;2024-02-26T06:03:45;6.43;;;5.33;;
50126;SDS011;36024;47.974;16.398;2024-02-26T06:06:13;6.90;;;5.53;;
50126;SDS011;36024;47.974;16.398;2024-02-26T06:08:45;6.57;;;5.13;;
50126;SDS011;36024;47.974;16.398;2024-02-26T06:11:12;6.77;;;5.23;;
50126;SDS011;36024;47.974;16.398;2024-02-26T06:13:39;6.27;;;5.13;;
50126;SDS011;36024;47.974;16.398;2024-02-26T06:16:08;6.23;;;5.50;;
50126;SDS011;36024;47.974;16.398;2024-02-26T06:18:36;6.93;;;5.20;;
50126;SDS011;36024;47.974;16.398;2024-02-26T06:21:08;6.50;;;4.93;;
50126;SDS011;36024;47.974;16.398;2024-02-26T06:23:37;7.60;;;5.17;;
50126;SDS011;36024;47.974;16.398;2024-02-26T06:26:05;8.37;;;5.77;;
50126;SDS011;36024;47.974;16.398;2024-02-26T06:28:33;9.93;;;5.63;;
50126;SDS011;36024;47.974;16.398;2024-02-26T06:31:03;6.57;;;5.23;;
50126;SDS011;36024;47.974;16.398;2024-02-26T06:33:32;6.47;;;5.80;;
50126;SDS011;36024;47.974;16.398;2024-02-26T06:36:00;8.57;;;6.63;;
50126;SDS011;36024;47.974;16.398;2024-02-26T06:38:31;8.40;;;6.20;;
50126;SDS011;36024;47.974;16.398;2024-02-26T06:41:02;6.77;;;5.10;;
50126;SDS011;36024;47.974;16.398;2024-02-26T06:43:30;6.37;;;4.80;;
50126;SDS011;36024;47.974;16.398;2024-02-26T06:45:59;6.23;;;4.73;;
50126;SDS011;36024;47.974;16.398;2024-02-26T06:48:25;5.80;;;4.50;;
50126;SDS011;36024;47.974;16.398;2024-02-26T06:50:53;5.93;;;4.43;;
50126;SDS011;36024;47.974;16.398;2024-02-26T06:53:24;4.73;;;4.00;;
50126;SDS011;36024;47.974;16.398;2024-02-26T06:55:52;6.13;;;4.27;;
50126;SDS011;36024;47.974;16.398;2024-02-26T06:58:19;5.10;;;3.67;;
50126;SDS011;36024;47.974;16.398;2024-02-26T07:00:46;6.80;;;4.37;;
50126;SDS011;36024;47.974;16.398;2024-02-26T07:03:21;5.60;;;4.30;;
50126;SDS011;36024;47.974;16.398;2024-02-26T07:05:53;7.33;;;4.33;;
50126;SDS011;36024;47.974;16.398;2024-02-26T07:08:20;4.47;;;3.87;;
50126;SDS011;36024;47.974;16.398;2024-02-26T07:10:48;5.73;;;4.07;;
50126;SDS011;36024;47.974;16.398;2024-02-26T07:13:18;4.90;;;4.20;;
50126;SDS011;36024;47.974;16.398;2024-02-26T07:15:45;4.77;;;3.60;;
50126;SDS011;36024;47.974;16.398;2024-02-26T07:18:15;4.83;;;3.97;;
50126;SDS011;36024;47.974;16.398;2024-02-26T07:20:43;7.13;;;4.17;;
50126;SDS011;36024;47.974;16.398;2024-02-26T07:23:11;4.87;;;3.50;;
50126;SDS011;36024;47.974;16.398;2024-02-26T07:25:39;5.30;;;4.00;;
50126;SDS011;36024;47.974;16.398;2024-02-26T07:28:11;5.73;;;3.63;;
50126;SDS011;36024;47.974;16.398;2024-02-26T07:30:47;5.13;;;3.83;;
50126;SDS011;36024;47.974;16.398;2024-02-26T07:33:15;5.37;;;3.90;;
50126;SDS011;36024;47.974;16.398;2024-02-26T07:35:42;4.87;;;3.30;;
50126;SDS011;36024;47.974;16.398;2024-02-26T07:38:09;4.73;;;3.57;;
50126;SDS011;36024;47.974;16.398;2024-02-26T07:40:53;5.87;;;3.43;;
50126;SDS011;36024;47.974;16.398;2024-02-26T07:43:28;4.43;;;3.50;;
50126;SDS011;36024;47.974;16.398;2024-02-26T07:45:57;4.80;;;3.47;;
50126;SDS011;36024;47.974;16.398;2024-02-26T07:48:24;4.57;;;3.50;;
50126;SDS011;36024;47.974;16.398;2024-02-26T07:50:54;4.47;;;3.73;;
50126;SDS011;36024;47.974;16.398;2024-02-26T07:53:24;6.03;;;3.47;;
50126;SDS011;36024;47.974;16.398;2024-02-26T07:55:52;4.33;;;3.43;;
50126;SDS011;36024;47.974;16.398;2024-02-26T07:58:19;4.30;;;3.50;;
50126;SDS011;36024;47.974;16.398;2024-02-26T08:00:46;4.80;;;3.70;;
50126;SDS011;36024;47.974;16.398;2024-02-26T08:03:14;5.27;;;4.10;;
50126;SDS011;36024;47.974;16.398;2024-02-26T08:05:50;4.20;;;3.70;;
50126;SDS011;36024;47.974;16.398;2024-02-26T08:08:18;4.57;;;3.50;;
50126;SDS011;36024;47.974;16.398;2024-02-26T08:10:46;4.57;;;3.80;;
50126;SDS011;36024;47.974;16.398;2024-02-26T08:13:15;4.63;;;4.10;;
50126;SDS011;36024;47.974;16.398;2024-02-26T08:15:43;4.40;;;3.20;;
50126;SDS011;36024;47.974;16.398;2024-02-26T08:18:10;4.73;;;3.50;;
50126;SDS011;36024;47.974;16.398;2024-02-26T08:20:39;4.00;;;3.40;;
50126;SDS011;36024;47.974;16.398;2024-02-26T08:23:06;3.27;;;2.23;;
50126;SDS011;36024;47.974;16.398;2024-02-26T08:25:36;2.83;;;2.60;;
50126;SDS011;36024;47.974;16.398;2024-02-26T08:28:07;2.47;;;2.20;;
50126;SDS011;36024;47.974;16.398;2024-02-26T08:30:34;3.33;;;2.00;;
50126;SDS011;36024;47.974;16.398;2024-02-26T08:33:02;3.83;;;2.20;;
50126;SDS011;36024;47.974;16.398;2024-02-26T08:35:30;2.17;;;1.90;;
50126;SDS011;36024;47.974;16.398;2024-02-26T08:37:59;4.00;;;1.90;;
50126;SDS011;36024;47.974;16.398;2024-02-26T08:40:32;2.93;;;1.60;;
50126;SDS011;36024;47.974;16.398;2024-02-26T08:42:59;1.80;;;1.60;;
50126;SDS011;36024;47.974;16.398;2024-02-26T08:45:26;2.57;;;1.70;;
50126;SDS011;36024;47.974;16.398;2024-02-26T08:47:56;2.90;;;1.63;;
50126;SDS011;36024;47.974;16.398;2024-02-26T08:50:27;2.17;;;1.60;;
50126;SDS011;36024;47.974;16.398;2024-02-26T08:52:55;2.73;;;1.53;;
50126;SDS011;36024;47.974;16.398;2024-02-26T08:55:22;2.50;;;1.57;;
50126;SDS011;36024;47.974;16.398;2024-02-26T08:57:49;2.50;;;1.67;;
50126;SDS011;36024;47.974;16.398;2024-02-26T09:00:17;2.77;;;1.40;;
50126;SDS011;36024;47.974;16.398;2024-02-26T09:02:48;3.17;;;1.50;;
50126;SDS011;36024;47.974;16.398;2024-02-26T09:05:17;1.40;;;1.30;;
50126;SDS011;36024;47.974;16.398;2024-02-26T09:07:44;1.97;;;1.50;;
50126;SDS011;36024;47.974;16.398;2024-02-26T09:10:14;2.20;;;1.50;;
50126;SDS011;36024;47.974;16.398;2024-02-26T09:12:43;3.10;;;1.60;;
50126;SDS011;36024;47.974;16.398;2024-02-26T09:15:22;2.30;;;1.47;;
50126;SDS011;36024;47.974;16.398;2024-02-26T09:17:57;1.80;;;1.47;;
50126;SDS011;36024;47.974;16.398;2024-02-26T09:20:34;4.00;;;1.43;;
50126;SDS011;36024;47.974;16.398;2024-02-26T09:23:02;1.27;;;1.10;;
50126;SDS011;36024;47.974;16.398;2024-02-26T09:25:34;3.33;;;1.23;;
50126;SDS011;36024;47.974;16.398;2024-02-26T09:28:05;2.67;;;1.20;;
50126;SDS011;36024;47.974;16.398;2024-02-26T09:30:48;2.40;;;1.30;;
50126;SDS011;36024;47.974;16.398;2024-02-26T09:33:20;2.03;;;1.20;;
50126;SDS011;36024;47.974;16.398;2024-02-26T09:35:55;1.63;;;1.10;;
50126;SDS011;36024;47.974;16.398;2024-02-26T09:38:37;2.63;;;1.40;;
50126;SDS011;36024;47.974;16.398;2024-02-26T09:41:23;2.63;;;1.30;;
50126;SDS011;36024;47.974;16.398;2024-02-26T09:43:56;1.33;;;1.20;;
50126;SDS011;36024;47.974;16.398;2024-02-26T09:46:28;2.50;;;1.17;;
50126;SDS011;36024;47.974;16.398;2024-02-26T09:48:58;1.90;;;1.23;;
50126;SDS011;36024;47.974;16.398;2024-02-26T09:51:43;2.93;;;1.37;;
50126;SDS011;36024;47.974;16.398;2024-02-26T09:54:22;1.70;;;1.20;;
50126;SDS011;36024;47.974;16.398;2024-02-26T09:57:03;2.20;;;1.20;;
50126;SDS011;36024;47.974;16.398;2024-02-26T09:59:40;4.13;;;1.40;;
50126;SDS011;36024;47.974;16.398;2024-02-26T10:02:13;2.17;;;1.37;;
50126;SDS011;36024;47.974;16.398;2024-02-26T10:04:50;1.87;;;1.20;;
50126;SDS011;36024;47.974;16.398;2024-02-26T10:07:27;2.00;;;1.10;;
50126;SDS011;36024;47.974;16.398;2024-02-26T10:10:10;1.80;;;1.20;;
50126;SDS011;36024;47.974;16.398;2024-02-26T10:12:43;1.63;;;1.30;;
50126;SDS011;36024;47.974;16.398;2024-02-26T10:15:19;1.10;;;0.80;;
50126;SDS011;36024;47.974;16.398;2024-02-26T10:17:58;1.20;;;0.90;;
50126;SDS011;36024;47.974;16.398;2024-02-26T10:21:03;1.30;;;1.00;;
50126;SDS011;36024;47.974;16.398;2024-02-26T10:24:50;1.70;;;1.20;;
50126;SDS011;36024;47.974;16.398;2024-02-26T10:31:57;2.23;;;1.20;;
50126;SDS011;36024;47.974;16.398;2024-02-26T10:39:23;1.30;;;0.90;;
50126;SDS011;36024;47.974;16.398;2024-02-26T10:42:12;3.17;;;1.27;;
50126;SDS011;36024;47.974;16.398;2024-02-26T10:49:16;0.80;;;0.70;;
50126;SDS011;36024;47.974;16.398;2024-02-26T10:52:37;1.23;;;0.83;;
50126;SDS011;36024;47.974;16.398;2024-02-26T10:59:56;1.07;;;0.80;;
50126;SDS011;36024;47.974;16.398;2024-02-26T11:02:52;2.90;;;0.90;;
50126;SDS011;36024;47.974;16.398;2024-02-26T11:06:04;3.20;;;0.97;;
50126;SDS011;36024;47.974;16.398;2024-02-26T11:08:56;2.03;;;0.90;;
50126;SDS011;36024;47.974;16.398;2024-02-26T11:16:20;1.33;;;0.90;;
50126;SDS011;36024;47.974;16.398;2024-02-26T11:18:59;2.23;;;0.90;;
50126;SDS011;36024;47.974;16.398;2024-02-26T11:21:44;1.83;;;1.00;;
50126;SDS011;36024;47.974;16.398;2024-02-26T11:25:07;2.27;;;0.90;;
50126;SDS011;36024;47.974;16.398;2024-02-26T11:28:09;1.33;;;0.87;;
50126;SDS011;36024;47.974;16.398;2024-02-26T11:31:32;1.30;;;0.80;;
50126;SDS011;36024;47.974;16.398;2024-02-26T11:38:40;2.90;;;0.93;;
50126;SDS011;36024;47.974;16.398;2024-02-26T11:41:48;3.30;;;2.33;;
50126;SDS011;36024;47.974;16.398;2024-02-26T11:45:21;2.13;;;1.87;;
50126;SDS011;36024;47.974;16.398;2024-02-26T11:52:10;1.43;;;1.00;;
50126;SDS011;36024;47.974;16.398;2024-02-26T11:55:25;1.43;;;1.00;;
50126;SDS011;36024;47.974;16.398;2024-02-26T12:02:58;0.97;;;0.80;;
50126;SDS011;36024;47.974;16.398;2024-02-26T12:05:53;2.87;;;0.90;;
50126;SDS011;36024;47.974;16.398;2024-02-26T12:08:21;1.57;;;1.10;;
50126;SDS011;36024;47.974;16.398;2024-02-26T12:10:50;0.97;;;0.90;;
50126;SDS011;36024;47.974;16.398;2024-02-26T12:13:18;1.80;;;1.10;;
50126;SDS011;36024;47.974;16.398;2024-02-26T12:18:27;1.33;;;1.03;;
50126;SDS011;36024;47.974;16.398;2024-02-26T12:25:46;2.13;;;1.33;;
50126;SDS011;36024;47.974;16.398;2024-02-26T12:28:17;2.33;;;1.20;;
50126;SDS011;36024;47.974;16.398;2024-02-26T12:30:48;1.23;;;0.93;;
50126;SDS011;36024;47.974;16.398;2024-02-26T12:33:18;1.87;;;0.90;;
50126;SDS011;36024;47.974;16.398;2024-02-26T12:36:12;2.73;;;1.20;;
50126;SDS011;36024;47.974;16.398;2024-02-26T12:38:41;1.60;;;1.13;;
50126;SDS011;36024;47.974;16.398;2024-02-26T12:41:15;1.73;;;0.90;;
50126;SDS011;36024;47.974;16.398;2024-02-26T12:53:08;2.13;;;0.90;;
50126;SDS011;36024;47.974;16.398;2024-02-26T12:55:45;2.33;;;1.10;;
50126;SDS011;36024;47.974;16.398;2024-02-26T12:58:38;2.20;;;1.27;;
50126;SDS011;36024;47.974;16.398;2024-02-26T13:01:13;1.53;;;1.43;;
50126;SDS011;36024;47.974;16.398;2024-02-26T13:03:41;2.00;;;1.23;;
50126;SDS011;36024;47.974;16.398;2024-02-26T13:06:09;1.57;;;1.23;;
50126;SDS011;36024;47.974;16.398;2024-02-26T13:08:37;2.33;;;1.20;;
50126;SDS011;36024;47.974;16.398;2024-02-26T13:11:05;1.47;;;0.80;;
50126;SDS011;36024;47.974;16.398;2024-02-26T13:13:33;2.37;;;1.00;;
50126;SDS011;36024;47.974;16.398;2024-02-26T13:16:01;1.90;;;1.00;;
50126;SDS011;36024;47.974;16.398;2024-02-26T13:18:32;1.30;;;0.97;;
50126;SDS011;36024;47.974;16.398;2024-02-26T13:21:13;1.80;;;0.93;;
50126;SDS011;36024;47.974;16.398;2024-02-26T13:24:01;1.50;;;1.20;;
50126;SDS011;36024;47.974;16.398;2024-02-26T13:26:40;0.83;;;0.83;;
50126;SDS011;36024;47.974;16.398;2024-02-26T13:29:09;2.73;;;1.00;;
50126;SDS011;36024;47.974;16.398;2024-02-26T13:31:48;1.93;;;1.20;;
50126;SDS011;36024;47.974;16.398;2024-02-26T13:34:33;1.27;;;0.93;;
50126;SDS011;36024;47.974;16.398;2024-02-26T13:37:06;1.57;;;1.00;;
50126;SDS011;36024;47.974;16.398;2024-02-26T13:39:33;1.87;;;0.87;;
50126;SDS011;36024;47.974;16.398;2024-02-26T13:42:06;2.23;;;1.30;;
50126;SDS011;36024;47.974;16.398;2024-02-26T13:44:36;3.10;;;1.60;;
50126;SDS011;36024;47.974;16.398;2024-02-26T13:47:48;1.60;;;1.07;;
50126;SDS011;36024;47.974;16.398;2024-02-26T13:50:15;1.43;;;1.07;;
50126;SDS011;36024;47.974;16.398;2024-02-26T13:52:42;1.57;;;1.10;;
50126;SDS011;36024;47.974;16.398;2024-02-26T13:55:09;1.80;;;1.10;;
50126;SDS011;36024;47.974;16.398;2024-02-26T13:57:36;1.73;;;0.93;;
50126;SDS011;36024;47.974;16.398;2024-02-26T14:00:04;1.87;;;0.90;;
50126;SDS011;36024;47.974;16.398;2024-02-26T14:02:37;2.20;;;0.80;;
50126;SDS011;36024;47.974;16.398;2024-02-26T14:05:06;1.30;;;0.97;;
50126;SDS011;36024;47.974;16.398;2024-02-26T14:07:36;2.30;;;1.00;;
50126;SDS011;36024;47.974;16.398;2024-02-26T14:10:09;2.27;;;1.00;;
50126;SDS011;36024;47.974;16.398;2024-02-26T14:12:40;2.33;;;0.90;;
50126;SDS011;36024;47.974;16.398;2024-02-26T14:15:10;1.37;;;0.90;;
50126;SDS011;36024;47.974;16.398;2024-02-26T14:17:40;1.47;;;1.10;;
50126;SDS011;36024;47.974;16.398;2024-02-26T14:20:07;1.20;;;0.90;;
50126;SDS011;36024;47.974;16.398;2024-02-26T14:22:35;2.40;;;1.10;;
50126;SDS011;36024;47.974;16.398;2024-02-26T14:25:03;1.03;;;0.90;;
50126;SDS011;36024;47.974;16.398;2024-02-26T14:27:30;2.37;;;1.00;;
50126;SDS011;36024;47.974;16.398;2024-02-26T14:30:01;1.90;;;1.00;;
50126;SDS011;36024;47.974;16.398;2024-02-26T14:32:31;1.87;;;1.40;;
50126;SDS011;36024;47.974;16.398;2024-02-26T14:35:03;3.93;;;2.50;;
50126;SDS011;36024;47.974;16.398;2024-02-26T14:37:32;4.07;;;2.90;;
50126;SDS011;36024;47.974;16.398;2024-02-26T14:39:59;1.93;;;1.33;;
50126;SDS011;36024;47.974;16.398;2024-02-26T14:42:30;2.53;;;1.53;;
50126;SDS011;36024;47.974;16.398;2024-02-26T14:45:01;2.97;;;1.20;;
50126;SDS011;36024;47.974;16.398;2024-02-26T14:47:29;2.00;;;1.30;;
50126;SDS011;36024;47.974;16.398;2024-02-26T14:49:58;3.90;;;0.93;;
50126;SDS011;36024;47.974;16.398;2024-02-26T14:52:25;2.20;;;1.20;;
50126;SDS011;36024;47.974;16.398;2024-02-26T14:54:55;1.37;;;1.10;;
50126;SDS011;36024;47.974;16.398;2024-02-26T14:57:27;2.53;;;1.40;;
50126;SDS011;36024;47.974;16.398;2024-02-26T14:59:57;4.03;;;3.00;;
50126;SDS011;36024;47.974;16.398;2024-02-26T15:02:24;3.97;;;2.73;;
50126;SDS011;36024;47.974;16.398;2024-02-26T15:04:52;1.10;;;0.93;;
50126;SDS011;36024;47.974;16.398;2024-02-26T15:07:22;2.77;;;1.53;;
50126;SDS011;36024;47.974;16.398;2024-02-26T15:09:50;1.70;;;1.60;;
50126;SDS011;36024;47.974;16.398;2024-02-26T15:12:24;3.53;;;2.57;;
50126;SDS011;36024;47.974;16.398;2024-02-26T15:14:58;2.67;;;2.10;;
50126;SDS011;36024;47.974;16.398;2024-02-26T15:17:27;2.00;;;1.30;;
50126;SDS011;36024;47.974;16.398;2024-02-26T15:20:02;2.73;;;1.30;;
50126;SDS011;36024;47.974;16.398;2024-02-26T15:22:30;6.73;;;5.90;;
50126;SDS011;36024;47.974;16.398;2024-02-26T15:24:58;3.57;;;2.17;;
50126;SDS011;36024;47.974;16.398;2024-02-26T15:27:26;4.80;;;4.30;;
50126;SDS011;36024;47.974;16.398;2024-02-26T15:29:54;3.03;;;1.50;;
50126;SDS011;36024;47.974;16.398;2024-02-26T15:32:27;2.97;;;1.53;;
50126;SDS011;36024;47.974;16.398;2024-02-26T15:34:55;3.87;;;2.43;;
50126;SDS011;36024;47.974;16.398;2024-02-26T15:37:23;4.73;;;1.90;;
50126;SDS011;36024;47.974;16.398;2024-02-26T15:39:52;2.77;;;1.47;;
50126;SDS011;36024;47.974;16.398;2024-02-26T15:42:19;3.70;;;1.63;;
50126;SDS011;36024;47.974;16.398;2024-02-26T15:44:47;2.27;;;1.90;;
50126;SDS011;36024;47.974;16.398;2024-02-26T15:47:15;3.20;;;2.37;;
50126;SDS011;36024;47.974;16.398;2024-02-26T15:49:43;3.33;;;2.40;;
50126;SDS011;36024;47.974;16.398;2024-02-26T15:52:11;2.20;;;1.60;;
50126;SDS011;36024;47.974;16.398;2024-02-26T15:54:39;2.53;;;1.90;;